Time;durP1;ratioP1;P1;durP2;ratioP2;P2;SDS_P1;SDS_P2;PMS_P1;PMS_P2;Temp;Humidity;BMP_temperature;BMP_pressure;BME280_temperature;BME280_humidity;BME280_pressure;Samples;Min_cycle;Max_cycle;Signal;HPM_P1;HPM_P2
2022/01/26 00:06:55;;;;;;;97.43;32.03;;;;;;;2.28;100.00;103216.16;10389732;28;20084;-74
2022/01/26 00:11:56;;;;;;;105.55;36.42;;;;;;;2.25;100.00;103204.69;10404246;28;20034;-74
2022/01/26 00:16:56;;;;;;;102.25;35.42;;;;;;;2.30;100.00;103207.88;10447818;28;20033;-74
2022/01/26 00:21:57;;;;;;;98.93;30.75;;;;;;;2.31;100.00;103201.41;10428686;28;20557;-73
2022/01/26 00:42:20;;;;;;;106.47;33.63;;;;;;;2.27;100.00;103164.63;10428291;28;20033;-73
2022/01/26 00:47:21;;;;;;;107.55;36.08;;;;;;;2.21;100.00;103139.75;10404893;28;20057;-74
2022/01/26 00:52:29;;;;;;;97.32;32.20;;;;;;;2.18;100.00;103148.19;10420260;28;20042;-73
2022/01/26 00:57:29;;;;;;;102.57;31.27;;;;;;;2.20;100.00;103148.91;10403181;28;20519;-73
2022/01/26 01:02:32;;;;;;;98.65;31.10;;;;;;;2.16;100.00;103133.88;10407712;28;20042;-72
2022/01/26 01:07:36;;;;;;;98.72;30.50;;;;;;;2.13;100.00;103142.34;10410812;28;20077;-73
2022/01/26 01:12:42;;;;;;;89.78;30.05;;;;;;;2.16;100.00;103150.19;10394973;28;20060;-73
2022/01/26 01:17:51;;;;;;;65.28;23.30;;;;;;;2.17;100.00;103146.50;10425074;28;20065;-73
2022/01/26 01:33:23;;;;;;;83.13;27.33;;;;;;;2.07;100.00;103115.75;10394513;28;20036;-73
2022/01/26 01:38:26;;;;;;;85.65;27.98;;;;;;;2.11;100.00;103121.72;10407318;28;20041;-72
2022/01/26 01:43:27;;;;;;;89.32;29.65;;;;;;;2.11;100.00;103110.84;10407716;28;20149;-73
2022/01/26 01:48:30;;;;;;;85.30;30.00;;;;;;;2.07;100.00;103091.28;10394153;28;20129;-73
2022/01/26 01:53:36;;;;;;;87.35;30.02;;;;;;;2.08;100.00;103092.97;10407762;28;20401;-73
2022/01/26 01:58:37;;;;;;;85.10;29.48;;;;;;;2.06;100.00;103105.84;10392323;28;20040;-73
2022/01/26 02:03:37;;;;;;;83.97;27.63;;;;;;;2.00;100.00;103096.41;10391208;28;20022;-72
2022/01/26 02:08:40;;;;;;;91.72;30.13;;;;;;;2.05;100.00;103117.75;10390990;28;20072;-73
2022/01/26 02:55:59;;;;;;;96.65;33.00;;;;;;;1.88;100.00;103055.94;10403682;28;20046;-73
2022/01/26 03:01:20;;;;;;;107.00;32.08;;;;;;;1.85;100.00;103056.25;10397741;28;20034;-73
2022/01/26 03:06:28;;;;;;;105.45;36.00;;;;;;;1.83;100.00;103055.53;10390370;28;20133;-73
2022/01/26 03:11:32;;;;;;;91.75;31.25;;;;;;;1.74;100.00;103055.38;10389056;28;20061;-73
2022/01/26 03:16:39;;;;;;;92.93;31.63;;;;;;;1.73;100.00;103061.81;10404675;28;20550;-72
2022/01/26 03:32:52;;;;;;;104.22;35.55;;;;;;;1.72;100.00;103056.53;10416978;28;20053;-72
2022/01/26 03:37:54;;;;;;;101.00;33.88;;;;;;;1.75;100.00;103062.53;10417053;28;20442;-73
2022/01/26 03:42:55;;;;;;;97.10;32.30;;;;;;;1.72;100.00;103060.09;10388309;28;20029;-73
2022/01/26 03:47:55;;;;;;;102.80;30.92;;;;;;;1.71;100.00;103063.81;10389780;28;20101;-72
2022/01/26 03:52:56;;;;;;;95.18;31.30;;;;;;;1.67;100.00;103081.38;10387816;28;20046;-73
2022/01/26 03:57:56;;;;;;;100.05;31.35;;;;;;;1.69;100.00;103089.41;10388737;28;20188;-72
2022/01/26 04:02:57;;;;;;;110.68;34.10;;;;;;;1.64;100.00;103094.41;10456464;28;20084;-73
2022/01/26 04:08:04;;;;;;;97.72;32.45;;;;;;;1.62;100.00;103105.41;10428352;28;20125;-73
2022/01/26 04:13:04;;;;;;;95.03;31.02;;;;;;;1.65;100.00;103096.97;10428786;28;20052;-73
2022/01/26 04:18:09;;;;;;;97.38;30.40;;;;;;;1.61;100.00;103088.25;10430429;28;20516;-73
2022/01/26 04:23:18;;;;;;;99.18;32.78;;;;;;;1.63;100.00;103057.38;10427153;28;20025;-72
2022/01/26 04:28:28;;;;;;;100.57;35.83;;;;;;;1.52;100.00;103031.22;10388020;28;20034;-73
2022/01/26 04:33:32;;;;;;;95.13;30.95;;;;;;;1.61;100.00;103027.66;10402235;28;20390;-72
2022/01/26 04:38:40;;;;;;;107.05;33.40;;;;;;;1.49;100.00;103001.63;10393248;28;20033;-72
2022/01/26 04:43:43;;;;;;;109.90;35.35;;;;;;;1.60;100.00;103006.94;10410647;28;20084;-73
2022/01/26 04:48:43;;;;;;;98.25;32.00;;;;;;;1.61;100.00;102993.22;10394223;28;20034;-73
2022/01/26 04:53:44;;;;;;;96.90;30.80;;;;;;;1.60;100.00;102993.38;10426782;28;20065;-73
2022/01/26 04:58:44;;;;;;;94.25;29.40;;;;;;;1.63;100.00;102990.34;10411085;28;20042;-73
2022/01/26 05:03:45;;;;;;;90.45;32.05;;;;;;;1.68;100.00;102979.09;10394317;28;20478;-73
2022/01/26 05:08:45;;;;;;;92.25;32.60;;;;;;;1.65;100.00;102995.63;10436249;28;20354;-72
2022/01/26 05:13:46;;;;;;;97.85;32.20;;;;;;;1.67;100.00;102974.63;10402332;28;20025;-72
2022/01/26 05:18:46;;;;;;;99.63;31.48;;;;;;;1.64;100.00;102988.50;10450640;28;20060;-73
2022/01/26 05:23:46;;;;;;;93.03;34.05;;;;;;;1.61;100.00;102986.91;10401021;28;20026;-72
2022/01/26 05:28:47;;;;;;;98.47;31.02;;;;;;;1.60;100.00;102996.94;10400260;28;20033;-72
2022/01/26 05:33:48;;;;;;;94.13;31.60;;;;;;;1.61;100.00;102989.63;10400444;28;20034;-73
2022/01/26 05:38:48;;;;;;;98.78;31.67;;;;;;;1.56;100.00;102990.06;10420606;28;20045;-72
2022/01/26 05:43:49;;;;;;;94.05;31.92;;;;;;;1.61;100.00;102984.19;10392500;28;20033;-73
2022/01/26 05:48:51;;;;;;;92.25;32.95;;;;;;;1.60;100.00;102969.78;10391603;28;20030;-72
2022/01/26 05:53:52;;;;;;;93.47;32.55;;;;;;;1.45;100.00;102971.22;10393019;28;20092;-73
2022/01/26 05:58:52;;;;;;;81.30;30.23;;;;;;;1.26;100.00;102903.34;10375516;28;20093;-73
2022/01/26 06:03:53;;;;;;;93.50;30.75;;;;;;;1.48;100.00;102951.06;10390880;28;20060;-72
2022/01/26 06:08:53;;;;;;;84.10;31.08;;;;;;;1.52;100.00;102947.91;10423883;28;20061;-73
2022/01/26 06:13:55;;;;;;;91.93;31.00;;;;;;;1.42;100.00;102931.63;10407878;28;20026;-72
2022/01/26 06:18:55;;;;;;;89.80;29.25;;;;;;;1.48;100.00;102934.78;10423585;28;20033;-73
2022/01/26 06:23:56;;;;;;;88.82;30.10;;;;;;;1.47;100.00;102938.47;10407312;28;20049;-72
2022/01/26 06:28:56;;;;;;;84.20;30.80;;;;;;;1.49;100.00;102944.63;10390033;28;20026;-73
2022/01/26 06:33:57;;;;;;;82.28;27.38;;;;;;;1.41;100.00;102957.06;10391071;28;20041;-73
2022/01/26 06:38:57;;;;;;;86.43;28.48;;;;;;;1.39;100.00;102958.22;10423835;28;20729;-73
2022/01/26 06:44:05;;;;;;;85.25;29.20;;;;;;;1.36;100.00;102970.19;10389622;28;20100;-73
2022/01/26 06:54:12;;;;;;;;;;;;;;;1.38;100.00;102945.63;10391412;28;20101;-72
2022/01/26 06:59:13;;;;;;;79.53;27.40;;;;;;;1.33;100.00;102964.22;10390160;28;19921;-73
2022/01/26 07:04:13;;;;;;;91.22;29.80;;;;;;;1.33;100.00;102970.50;10380204;28;20387;-73
2022/01/26 07:09:16;;;;;;;73.35;27.15;;;;;;;1.39;100.00;102955.50;10406112;28;20042;-72
2022/01/26 07:24:49;;;;;;;72.03;25.95;;;;;;;1.44;100.00;102976.78;10404509;28;20046;-73
2022/01/26 07:29:50;;;;;;;92.10;29.48;;;;;;;1.42;100.00;102971.50;10392813;28;20017;-73
2022/01/26 07:34:50;;;;;;;78.43;27.30;;;;;;;1.41;100.00;102967.94;10428743;28;20033;-73
2022/01/26 07:40:03;;;;;;;76.50;28.75;;;;;;;1.39;100.00;102952.78;10412298;28;20041;-73
2022/01/26 07:45:05;;;;;;;84.20;28.05;;;;;;;1.48;100.00;102956.50;10430537;28;20025;-73
2022/01/26 07:50:08;;;;;;;72.45;28.25;;;;;;;1.42;100.00;102953.34;10430806;28;20022;-73
2022/01/26 07:55:13;;;;;;;80.35;30.20;;;;;;;1.48;100.00;102953.78;10429584;28;20054;-73
2022/01/26 08:00:13;;;;;;;84.60;30.95;;;;;;;1.47;100.00;102962.91;10429057;28;20052;-73
2022/01/26 08:05:14;;;;;;;78.93;27.45;;;;;;;1.46;100.00;102969.34;10388991;28;20026;-73
2022/01/26 08:10:15;;;;;;;88.75;29.77;;;;;;;1.49;100.00;102975.38;10373981;28;20130;-73
2022/01/26 08:15:15;;;;;;;81.75;30.27;;;;;;;1.52;100.00;102961.50;10395876;28;20045;-73
2022/01/26 08:20:16;;;;;;;83.65;29.70;;;;;;;1.54;100.00;102972.22;10395895;28;20038;-73
2022/01/26 08:25:16;;;;;;;85.07;30.63;;;;;;;1.59;100.00;102981.66;10403075;28;20049;-73
2022/01/26 08:30:18;;;;;;;75.65;29.27;;;;;;;1.57;100.00;102988.19;10436867;28;20040;-73
2022/01/26 08:35:19;;;;;;;84.93;32.00;;;;;;;1.60;100.00;102993.38;10427799;28;20052;-73
2022/01/26 08:40:19;;;;;;;79.07;29.17;;;;;;;1.62;100.00;102977.78;10451971;28;20021;-72
2022/01/26 08:45:20;;;;;;;93.15;33.28;;;;;;;1.64;100.00;102969.50;10435064;28;20079;-73
2022/01/26 08:50:20;;;;;;;85.30;32.72;;;;;;;1.60;100.00;102955.34;10436530;28;20025;-73
2022/01/26 08:55:21;;;;;;;86.50;33.35;;;;;;;1.68;100.00;102985.38;10401580;28;20041;-73
2022/01/26 09:00:21;;;;;;;91.22;33.90;;;;;;;1.64;100.00;102974.94;10415376;28;20083;-73
2022/01/26 09:05:22;;;;;;;86.85;32.63;;;;;;;1.73;100.00;102983.06;10428755;28;20045;-73
2022/01/26 09:10:26;;;;;;;84.95;33.58;;;;;;;1.68;100.00;102979.94;10394591;28;20037;-73
2022/01/26 09:15:29;;;;;;;86.25;33.13;;;;;;;1.76;100.00;102974.63;10426047;28;20041;-73
2022/01/26 09:20:30;;;;;;;96.35;35.45;;;;;;;1.86;100.00;102998.19;10409248;28;20100;-74
2022/01/26 09:25:30;;;;;;;92.85;36.28;;;;;;;1.87;100.00;103011.63;10392582;28;20100;-73
2022/01/26 09:30:30;;;;;;;102.85;36.85;;;;;;;1.94;100.00;102995.63;10397068;28;20748;-73
2022/01/26 09:35:31;;;;;;;104.07;34.60;;;;;;;1.94;100.00;102974.75;10430636;28;20037;-73
2022/01/26 09:40:31;;;;;;;109.07;39.60;;;;;;;1.97;100.00;102989.91;10392158;28;20050;-74
2022/01/26 09:45:34;;;;;;;112.50;42.28;;;;;;;2.04;100.00;102961.13;10394084;28;20580;-74
2022/01/26 09:50:35;;;;;;;114.18;40.22;;;;;;;2.10;100.00;102959.69;10393841;28;20111;-73
2022/01/26 09:55:36;;;;;;;114.25;42.28;;;;;;;2.13;100.00;102960.28;10391350;28;20073;-73
2022/01/26 10:00:37;;;;;;;108.95;38.63;;;;;;;2.16;100.00;102951.81;10407974;28;20073;-73
2022/01/26 10:05:42;;;;;;;113.10;39.35;;;;;;;2.28;100.00;102976.97;10391429;28;20061;-74
2022/01/26 10:21:48;;;;;;;113.72;43.92;;;;;;;2.54;100.00;102993.47;10405677;28;20065;-73
2022/01/26 10:26:49;;;;;;;109.85;42.13;;;;;;;2.57;100.00;102993.16;10390807;28;20048;-73
2022/01/26 10:31:50;;;;;;;99.90;42.83;;;;;;;2.54;100.00;102977.16;10389472;28;20030;-73
2022/01/26 10:36:54;;;;;;;106.00;41.97;;;;;;;2.60;100.00;102981.13;10421486;28;20045;-73
2022/01/26 10:41:58;;;;;;;105.57;41.13;;;;;;;2.65;100.00;102956.19;10389756;28;20042;-73
2022/01/26 10:47:01;;;;;;;105.07;41.10;;;;;;;2.76;100.00;102958.72;10372919;28;20050;-73
2022/01/26 10:52:03;;;;;;;106.60;41.17;;;;;;;2.73;100.00;102949.00;10405995;28;20038;-73
2022/01/26 10:57:08;;;;;;;110.55;44.15;;;;;;;2.76;100.00;102942.41;10388654;28;20137;-74
2022/01/26 11:02:10;;;;;;;109.50;41.92;;;;;;;2.91;100.00;102954.47;10408989;28;20105;-73
2022/01/26 11:07:11;;;;;;;100.85;40.95;;;;;;;2.93;100.00;102938.00;10373016;28;20405;-73
2022/01/26 11:12:12;;;;;;;102.07;40.78;;;;;;;2.99;100.00;102932.78;10405260;28;20038;-74
2022/01/26 11:17:27;;;;;;;104.97;40.55;;;;;;;3.01;100.00;102947.09;10388531;28;20056;-74
2022/01/26 11:22:31;;;;;;;108.10;43.30;;;;;;;3.08;100.00;102941.03;10388816;28;20026;-73
2022/01/26 11:27:36;;;;;;;114.68;43.63;;;;;;;3.11;100.00;102938.03;10387723;28;20041;-74
2022/01/26 11:32:39;;;;;;;112.57;42.75;;;;;;;3.08;100.00;102936.47;10411732;28;20053;-73
2022/01/26 11:37:48;;;;;;;106.25;41.33;;;;;;;3.11;100.00;102928.00;10410811;28;20030;-73
2022/01/26 11:48:01;;;;;;;108.72;43.15;;;;;;;3.14;100.00;102935.00;10428900;28;20080;-74
2022/01/26 11:53:09;;;;;;;117.65;43.20;;;;;;;3.23;100.00;102928.63;10427978;28;20056;-72
2022/01/26 11:58:17;;;;;;;100.82;40.38;;;;;;;3.18;100.00;102922.78;10394231;28;20073;-73
2022/01/26 12:03:20;;;;;;;;;;;;;;;3.23;100.00;102924.03;10395994;28;20816;-73
2022/01/26 12:08:38;;;;;;;105.15;40.10;;;;;;;3.21;100.00;102914.31;10428937;28;19921;-74
2022/01/26 12:13:39;;;;;;;113.65;41.10;;;;;;;3.18;100.00;102918.22;10425971;28;20025;-73
2022/01/26 12:45:15;;;;;;;94.35;34.45;;;;;;;3.41;100.00;102869.59;10403841;28;20045;-74
2022/01/26 12:50:15;;;;;;;95.63;35.35;;;;;;;3.43;100.00;102864.84;10370893;28;20036;-77
2022/01/26 12:55:30;;;;;;;91.68;36.17;;;;;;;3.56;100.00;102863.56;10353463;28;20061;-74
2022/01/26 13:00:41;;;;;;;92.40;34.60;;;;;;;3.44;100.00;102869.25;10394955;28;20042;-78
2022/01/26 13:05:42;;;;;;;108.68;35.20;;;;;;;3.32;100.00;102845.16;10375520;28;20042;-78
2022/01/26 13:10:43;;;;;;;109.43;37.13;;;;;;;3.27;100.00;102859.25;10377015;28;20030;-78
2022/01/26 13:15:56;;;;;;;87.50;34.53;;;;;;;3.26;100.00;102852.09;10393999;28;20049;-79
2022/01/26 13:26:40;;;;;;;81.20;30.38;;;;;;;3.40;100.00;102850.69;10429549;28;20037;-80
2022/01/26 13:47:40;;;;;;;93.22;32.22;;;;;;;3.56;100.00;102803.66;10430659;28;20432;-80
2022/01/26 13:52:52;;;;;;;78.35;28.65;;;;;;;3.49;100.00;102805.28;10431172;28;20029;-79
2022/01/26 14:02:59;;;;;;;76.90;30.73;;;;;;;3.53;100.00;102820.28;10416164;28;20048;-79
2022/01/26 14:08:00;;;;;;;85.47;32.67;;;;;;;3.57;100.00;102808.06;10429729;28;20045;-80
2022/01/26 14:13:01;;;;;;;81.28;32.80;;;;;;;3.63;100.00;102799.25;10410150;28;20048;-80
2022/01/26 14:28:34;;;;;;;88.78;31.88;;;;;;;3.64;100.00;102796.38;10432329;28;20366;-79
2022/01/26 15:53:14;;;;;;;70.95;27.40;;;;;;;3.86;100.00;102771.44;10454008;28;20029;-81
2022/01/26 18:05:18;;;;;;;72.88;27.92;;;;;;;4.09;100.00;102644.44;10430191;28;20028;-79
2022/01/26 18:51:56;;;;;;;70.60;29.60;;;;;;;4.21;100.00;102574.09;10389995;28;20336;-81
2022/01/26 18:56:58;;;;;;;62.05;27.05;;;;;;;4.29;100.00;102570.53;10373012;28;20144;-79
2022/01/26 19:01:59;;;;;;;72.57;28.33;;;;;;;4.23;100.00;102553.81;10372731;28;20517;-80
2022/01/26 19:07:00;;;;;;;64.80;27.58;;;;;;;4.28;100.00;102549.72;10373292;28;20093;-78
2022/01/26 19:12:01;;;;;;;60.85;26.95;;;;;;;4.36;100.00;102547.00;10387431;28;20046;-79
2022/01/26 19:27:50;;;;;;;56.15;22.20;;;;;;;4.44;100.00;102527.91;10395234;28;20050;-80
2022/01/26 19:53:50;;;;;;;51.13;24.17;;;;;;;4.62;100.00;102506.72;10402107;28;20066;-81
2022/01/26 19:58:51;;;;;;;54.85;20.60;;;;;;;4.68;100.00;102501.59;10386709;28;20026;-77
2022/01/26 20:03:51;;;;;;;50.40;21.00;;;;;;;4.72;100.00;102494.78;10387784;28;20045;-79
2022/01/26 20:13:59;;;;;;;49.03;19.92;;;;;;;4.74;100.00;102492.72;10387893;28;20041;-77
2022/01/26 20:19:00;;;;;;;52.13;21.48;;;;;;;4.75;100.00;102488.94;10372280;28;20034;-80
2022/01/26 20:24:01;;;;;;;48.58;22.08;;;;;;;4.79;100.00;102487.56;10352762;28;20030;-81
2022/01/26 20:29:01;;;;;;;54.00;22.63;;;;;;;4.74;100.00;102470.91;10380667;28;20037;-80
2022/01/26 20:34:01;;;;;;;47.97;20.08;;;;;;;4.82;100.00;102485.34;10425910;28;20029;-79
2022/01/26 20:39:03;;;;;;;38.97;19.55;;;;;;;4.86;100.00;102474.94;10410400;28;20133;-79
2022/01/26 20:44:04;;;;;;;50.80;20.10;;;;;;;4.85;100.00;102478.69;10410453;28;20034;-81
2022/01/26 20:49:04;;;;;;;43.05;19.60;;;;;;;4.84;100.00;102479.72;10386257;28;20042;-80
2022/01/26 20:54:09;;;;;;;49.38;21.98;;;;;;;4.87;100.00;102471.16;10376997;28;20049;-80
2022/01/26 20:59:09;;;;;;;46.35;21.42;;;;;;;4.84;100.00;102453.28;10409826;28;20067;-79
2022/01/26 21:04:10;;;;;;;42.13;21.08;;;;;;;4.87;100.00;102453.94;10403165;28;20087;-80
2022/01/26 21:09:10;;;;;;;50.85;22.48;;;;;;;4.76;100.00;102430.63;10408313;28;20026;-81
2022/01/26 21:14:11;;;;;;;63.92;24.58;;;;;;;4.70;100.00;102442.25;10398098;28;20060;-79
2022/01/26 21:19:11;;;;;;;56.97;28.20;;;;;;;4.72;100.00;102426.56;10397768;28;20034;-80
2022/01/26 21:24:12;;;;;;;63.65;30.27;;;;;;;4.71;100.00;102442.06;10435491;28;20025;-81
2022/01/26 21:29:12;;;;;;;61.65;28.27;;;;;;;4.71;100.00;102449.41;10417154;28;20033;-80
2022/01/26 21:34:14;;;;;;;71.70;29.75;;;;;;;4.68;100.00;102428.78;10434559;28;20029;-81
2022/01/26 21:39:14;;;;;;;70.13;29.52;;;;;;;4.65;100.00;102416.34;10434260;28;20089;-82
2022/01/26 21:44:15;;;;;;;56.15;27.77;;;;;;;4.65;100.00;102408.19;10384330;28;20083;-82
2022/01/26 21:49:15;;;;;;;67.75;29.13;;;;;;;4.71;100.00;102412.06;10432997;28;20049;-80
2022/01/26 21:54:16;;;;;;;61.83;30.13;;;;;;;4.67;100.00;102401.69;10400287;28;20053;-77
2022/01/26 21:59:16;;;;;;;64.70;29.70;;;;;;;4.65;100.00;102382.75;10394684;28;20131;-80
2022/01/26 22:04:17;;;;;;;59.88;28.02;;;;;;;4.62;100.00;102374.94;10412832;28;20568;-81
2022/01/26 22:09:17;;;;;;;71.18;30.30;;;;;;;4.66;100.00;102381.75;10397109;28;20063;-82
2022/01/26 22:14:18;;;;;;;69.00;30.80;;;;;;;4.68;100.00;102379.69;10427236;28;20044;-78
2022/01/26 22:19:19;;;;;;;66.60;28.52;;;;;;;4.73;100.00;102381.88;10383109;28;20826;-79
2022/01/26 22:24:24;;;;;;;65.22;28.52;;;;;;;4.66;100.00;102351.72;10374936;28;20052;-82
2022/01/26 22:29:27;;;;;;;63.53;28.45;;;;;;;4.65;100.00;102342.72;10374268;28;20026;-77
2022/01/26 22:34:27;;;;;;;55.13;26.77;;;;;;;4.68;100.00;102346.09;10375230;28;20050;-82
2022/01/26 22:39:28;;;;;;;65.35;26.60;;;;;;;4.73;100.00;102340.94;10374733;28;20025;-81
2022/01/26 22:44:28;;;;;;;57.25;28.70;;;;;;;4.55;100.00;102292.13;10374243;28;20037;-81
2022/01/26 22:49:29;;;;;;;78.07;28.50;;;;;;;4.67;100.00;102306.19;10391496;28;20449;-82
2022/01/26 22:54:29;;;;;;;57.33;27.45;;;;;;;4.63;100.00;102292.94;10389712;28;20069;-80
2022/01/26 22:59:30;;;;;;;55.55;25.15;;;;;;;4.60;100.00;102306.06;10373181;28;20040;-81
2022/01/26 23:04:32;;;;;;;51.67;23.80;;;;;;;4.64;100.00;102302.78;10373356;28;20209;-76
2022/01/26 23:09:33;;;;;;;57.67;26.40;;;;;;;4.62;100.00;102277.56;10390127;28;20034;-80
2022/01/26 23:14:33;;;;;;;58.45;25.33;;;;;;;4.61;100.00;102275.91;10390629;28;20038;-81
2022/01/26 23:19:34;;;;;;;48.50;22.70;;;;;;;4.47;100.00;102249.38;10356563;28;20033;-87
2022/01/26 23:24:40;;;;;;;69.53;24.75;;;;;;;4.64;100.00;102285.59;10371647;28;20034;-84
2022/01/26 23:29:54;;;;;;;;;;;;;;;4.70;100.00;102278.56;10389235;28;20041;-81
2022/01/26 23:35:31;;;;;;;44.80;23.02;;;;;;;4.65;100.00;102282.69;10389107;28;19917;-80
